createdAt,value
2023-07-15T00:01:21.404Z,2.90
2023-07-15T00:03:49.237Z,4.55
2023-07-15T00:06:17.048Z,4.30
2023-07-15T00:08:45.096Z,3.03
2023-07-15T00:11:35.786Z,3.13
2023-07-15T00:14:03.395Z,4.05
2023-07-15T00:16:31.771Z,4.60
2023-07-15T00:18:59.721Z,5.32
2023-07-15T00:21:31.783Z,4.60
2023-07-15T00:23:59.934Z,3.10
2023-07-15T00:26:30.370Z,2.97
2023-07-15T00:29:01.662Z,3.90
2023-07-15T00:31:29.212Z,3.95
2023-07-15T00:33:55.919Z,2.72
2023-07-15T00:36:22.822Z,5.07
2023-07-15T00:38:50.674Z,5.28
2023-07-15T00:41:27.826Z,3.75
2023-07-15T00:43:59.973Z,4.07
2023-07-15T00:46:44.982Z,3.75
2023-07-15T00:49:22.715Z,3.08
2023-07-15T00:52:01.464Z,2.95
2023-07-15T00:54:32.307Z,4.50
2023-07-15T00:57:01.493Z,2.75
2023-07-15T00:59:28.762Z,3.30
2023-07-15T01:01:56.124Z,3.13
2023-07-15T01:04:23.160Z,3.03
2023-07-15T01:06:50.284Z,2.88
2023-07-15T01:09:18.281Z,3.10
2023-07-15T01:11:46.120Z,2.60
2023-07-15T01:14:14.809Z,13.65
2023-07-15T01:16:42.814Z,18.10
2023-07-15T01:19:11.002Z,6.53
2023-07-15T01:21:39.279Z,5.03
2023-07-15T01:24:09.196Z,4.90
2023-07-15T01:26:37.997Z,8.27
2023-07-15T01:29:06.016Z,9.30
2023-07-15T01:31:34.302Z,6.60
2023-07-15T01:34:02.343Z,6.65
2023-07-15T01:36:30.190Z,6.20
2023-07-15T01:38:58.224Z,6.00
2023-07-15T01:41:26.383Z,7.72
2023-07-15T01:43:54.420Z,7.43
2023-07-15T01:46:22.774Z,6.95
2023-07-15T01:48:50.999Z,5.65
2023-07-15T01:51:18.827Z,5.53
2023-07-15T01:53:46.995Z,5.50
2023-07-15T01:56:14.638Z,7.63
2023-07-15T01:58:42.125Z,5.50
2023-07-15T02:01:09.551Z,6.68
2023-07-15T02:03:36.739Z,6.65
2023-07-15T02:06:04.024Z,4.55
2023-07-15T02:08:31.252Z,6.32
2023-07-15T02:10:59.351Z,6.70
2023-07-15T02:13:26.978Z,6.70
2023-07-15T02:15:55.192Z,5.32
2023-07-15T02:18:25.473Z,5.53
2023-07-15T02:20:53.079Z,5.10
2023-07-15T02:23:20.006Z,6.93
2023-07-15T02:25:46.839Z,4.65
2023-07-15T02:28:13.673Z,3.63
2023-07-15T02:30:40.641Z,5.45
2023-07-15T02:33:07.913Z,4.95
2023-07-15T02:35:35.192Z,3.63
2023-07-15T02:38:02.204Z,5.22
2023-07-15T02:40:29.968Z,5.47
2023-07-15T02:42:57.107Z,3.67
2023-07-15T02:45:25.232Z,5.97
2023-07-15T02:47:52.131Z,3.17
2023-07-15T02:50:19.419Z,4.32
2023-07-15T02:52:46.819Z,3.90
2023-07-15T02:55:13.670Z,4.18
2023-07-15T02:57:40.829Z,3.95
2023-07-15T03:00:13.195Z,4.03
2023-07-15T03:02:40.317Z,3.90
2023-07-15T03:05:07.555Z,3.88
2023-07-15T03:07:35.610Z,4.20
2023-07-15T03:10:03.448Z,4.18
2023-07-15T03:12:31.311Z,5.70
2023-07-15T03:14:58.410Z,3.00
2023-07-15T03:17:25.456Z,3.70
2023-07-15T03:19:53.070Z,3.28
2023-07-15T03:22:20.044Z,2.97
2023-07-15T03:24:46.992Z,5.80
2023-07-15T03:27:13.953Z,3.35
2023-07-15T03:29:40.827Z,4.82
2023-07-15T03:32:07.727Z,3.38
2023-07-15T03:34:34.741Z,3.20
2023-07-15T03:37:01.690Z,2.90
2023-07-15T03:39:28.724Z,3.95
2023-07-15T03:41:55.514Z,3.13
2023-07-15T03:44:22.452Z,2.88
2023-07-15T03:46:49.400Z,2.65
2023-07-15T03:49:16.236Z,3.67
2023-07-15T03:51:43.122Z,2.97
2023-07-15T03:54:10.262Z,3.45
2023-07-15T03:56:37.042Z,4.68
2023-07-15T03:59:03.970Z,5.78
2023-07-15T04:01:31.966Z,5.65
2023-07-15T04:03:58.913Z,3.88
2023-07-15T04:06:25.846Z,4.50
2023-07-15T04:08:52.793Z,3.42
2023-07-15T04:11:19.811Z,4.05
2023-07-15T04:13:46.696Z,4.70
2023-07-15T04:16:14.231Z,4.15
2023-07-15T04:18:41.620Z,3.92
2023-07-15T04:21:08.768Z,3.63
2023-07-15T04:23:35.851Z,5.82
2023-07-15T04:26:03.572Z,2.63
2023-07-15T04:28:30.481Z,3.53
2023-07-15T04:30:57.787Z,4.40
2023-07-15T04:33:24.691Z,4.32
2023-07-15T04:35:52.187Z,5.22
2023-07-15T04:38:21.291Z,5.18
2023-07-15T04:40:48.273Z,3.28
2023-07-15T04:43:15.252Z,3.88
2023-07-15T04:45:42.515Z,5.43
2023-07-15T04:48:10.109Z,4.40
2023-07-15T04:50:37.507Z,5.13
2023-07-15T04:53:04.442Z,3.42
2023-07-15T04:55:31.349Z,4.85
2023-07-15T04:57:58.228Z,3.95
2023-07-15T05:00:27.833Z,4.70
2023-07-15T05:02:54.852Z,2.70
2023-07-15T05:05:21.741Z,3.70
2023-07-15T05:07:58.506Z,6.15
2023-07-15T05:10:26.711Z,4.32
2023-07-15T05:12:53.473Z,3.80
2023-07-15T05:15:21.062Z,4.90
2023-07-15T05:17:47.991Z,3.13
2023-07-15T05:20:15.193Z,5.50
2023-07-15T05:22:42.983Z,5.60
2023-07-15T05:25:13.637Z,4.18
2023-07-15T05:27:41.677Z,2.63
2023-07-15T05:30:12.551Z,4.50
2023-07-15T05:32:39.739Z,4.03
2023-07-15T05:35:06.948Z,4.13
2023-07-15T05:37:33.979Z,4.32
2023-07-15T05:40:00.838Z,4.60
2023-07-15T05:42:28.275Z,3.92
2023-07-15T05:44:55.430Z,3.38
2023-07-15T05:47:23.380Z,4.47
2023-07-15T05:49:50.699Z,3.95
2023-07-15T05:52:17.818Z,4.45
2023-07-15T05:54:44.772Z,3.67
2023-07-15T05:57:11.756Z,4.00
2023-07-15T05:59:39.565Z,4.82
2023-07-15T06:02:07.027Z,4.15
2023-07-15T06:04:34.248Z,4.13
2023-07-15T06:07:01.396Z,5.10
2023-07-15T06:09:28.382Z,3.63
2023-07-15T06:11:55.386Z,3.97
2023-07-15T06:14:22.654Z,4.72
2023-07-15T06:16:50.184Z,5.00
2023-07-15T06:19:19.439Z,3.60
2023-07-15T06:21:48.122Z,5.28
2023-07-15T06:24:15.232Z,3.00
2023-07-15T06:26:42.797Z,2.95
2023-07-15T06:29:11.120Z,3.85
2023-07-15T06:31:38.259Z,5.40
2023-07-15T06:34:05.777Z,3.40
2023-07-15T06:36:33.126Z,2.88
2023-07-15T06:38:59.801Z,4.95
2023-07-15T06:41:26.434Z,3.70
2023-07-15T06:43:53.800Z,5.03
2023-07-15T06:46:20.667Z,4.20
2023-07-15T06:48:47.458Z,3.63
2023-07-15T06:51:16.315Z,3.70
2023-07-15T06:53:43.338Z,3.05
2023-07-15T06:56:19.891Z,3.65
2023-07-15T06:58:48.177Z,4.18
2023-07-15T07:01:15.432Z,4.25
2023-07-15T07:03:42.530Z,3.92
2023-07-15T07:06:09.422Z,3.00
2023-07-15T07:08:36.152Z,3.35
2023-07-15T07:11:03.517Z,4.07
2023-07-15T07:13:30.642Z,2.90
2023-07-15T07:15:58.847Z,4.90
2023-07-15T07:18:28.728Z,3.40
2023-07-15T07:20:59.573Z,2.97
2023-07-15T07:23:26.592Z,4.28
2023-07-15T07:25:54.170Z,4.13
2023-07-15T07:28:25.585Z,4.32
2023-07-15T07:30:52.319Z,4.57
2023-07-15T07:33:21.080Z,4.78
2023-07-15T07:35:48.156Z,3.80
2023-07-15T07:38:15.198Z,4.88
2023-07-15T07:40:46.017Z,3.63
2023-07-15T07:43:12.785Z,3.95
2023-07-15T07:45:39.518Z,4.47
2023-07-15T07:48:06.226Z,3.00
2023-07-15T07:50:34.858Z,3.63
2023-07-15T07:53:01.609Z,4.45
2023-07-15T07:55:28.222Z,3.60
2023-07-15T07:57:54.826Z,3.15
2023-07-15T08:00:21.438Z,3.13
2023-07-15T08:02:48.274Z,2.92
2023-07-15T08:05:15.027Z,3.45
2023-07-15T08:07:41.651Z,3.40
2023-07-15T08:10:08.786Z,3.80
2023-07-15T08:12:35.475Z,5.22
2023-07-15T08:15:02.946Z,4.22
2023-07-15T08:17:30.438Z,4.00
2023-07-15T08:19:57.060Z,3.90
2023-07-15T08:22:23.836Z,4.10
2023-07-15T08:24:50.550Z,3.20
2023-07-15T08:27:17.203Z,4.03
2023-07-15T08:29:43.862Z,3.47
2023-07-15T08:32:10.568Z,4.65
2023-07-15T08:34:37.396Z,4.47
2023-07-15T08:37:04.239Z,4.70
2023-07-15T08:39:31.017Z,3.88
2023-07-15T08:41:58.821Z,4.72
2023-07-15T08:44:25.524Z,4.18
2023-07-15T08:46:52.822Z,6.30
2023-07-15T08:49:20.201Z,8.38
2023-07-15T08:51:46.883Z,3.78
2023-07-15T08:54:14.350Z,4.85
2023-07-15T08:56:41.164Z,4.07
2023-07-15T08:59:08.110Z,5.10
2023-07-15T09:01:38.007Z,4.07
2023-07-15T09:04:05.307Z,4.53
2023-07-15T09:06:33.483Z,4.50
2023-07-15T09:09:00.140Z,3.55
2023-07-15T09:11:38.386Z,3.55
2023-07-15T09:14:15.808Z,4.28
2023-07-15T09:16:43.261Z,4.60
2023-07-15T09:19:10.346Z,3.90
2023-07-15T09:21:37.069Z,4.68
2023-07-15T09:24:04.196Z,5.10
2023-07-15T09:26:30.999Z,4.38
2023-07-15T09:28:57.641Z,3.10
2023-07-15T09:31:25.644Z,3.80
2023-07-15T09:33:52.657Z,5.75
2023-07-15T09:36:33.294Z,4.10
2023-07-15T09:39:13.057Z,3.72
2023-07-15T09:41:40.838Z,4.05
2023-07-15T09:44:08.270Z,3.83
2023-07-15T09:46:35.243Z,3.97
2023-07-15T09:49:02.092Z,3.83
2023-07-15T09:51:28.730Z,4.15
2023-07-15T09:53:56.589Z,3.30
2023-07-15T09:56:37.790Z,3.20
2023-07-15T09:59:30.016Z,3.50
2023-07-15T10:02:09.185Z,3.45
2023-07-15T10:04:36.928Z,6.65
2023-07-15T10:07:04.894Z,3.70
2023-07-15T10:09:32.592Z,4.18
2023-07-15T10:12:00.367Z,4.32
2023-07-15T10:14:30.235Z,4.60
2023-07-15T10:17:14.185Z,4.18
2023-07-15T10:19:41.793Z,4.28
2023-07-15T10:22:09.603Z,3.47
2023-07-15T10:24:36.395Z,3.78
2023-07-15T10:27:11.692Z,5.72
2023-07-15T10:29:40.329Z,8.15
2023-07-15T10:32:18.028Z,8.27
2023-07-15T10:34:51.911Z,5.43
2023-07-15T10:37:19.807Z,6.22
2023-07-15T10:39:47.584Z,8.27
2023-07-15T10:42:18.611Z,7.18
2023-07-15T10:44:47.365Z,8.60
2023-07-15T10:47:16.802Z,6.53
2023-07-15T10:49:44.594Z,7.18
2023-07-15T10:52:12.313Z,7.97
2023-07-15T10:54:41.419Z,10.85
2023-07-15T10:57:10.207Z,8.93
2023-07-15T10:59:39.420Z,8.60
2023-07-15T11:02:06.812Z,10.85
2023-07-15T11:04:34.635Z,9.15
2023-07-15T11:07:02.534Z,11.63
2023-07-15T11:09:29.449Z,12.77
2023-07-15T11:11:56.507Z,9.18
2023-07-15T11:14:24.265Z,13.68
2023-07-15T11:16:52.545Z,11.85
2023-07-15T11:19:19.543Z,13.75
2023-07-15T11:21:46.523Z,13.60
2023-07-15T11:24:14.024Z,13.63
2023-07-15T11:26:41.576Z,13.73
2023-07-15T11:29:34.577Z,10.90
2023-07-15T11:32:02.360Z,10.95
2023-07-15T11:34:30.441Z,12.57
2023-07-15T11:36:57.154Z,12.82
2023-07-15T11:39:25.073Z,10.90
2023-07-15T11:41:51.811Z,11.80
2023-07-15T11:44:22.123Z,14.13
2023-07-15T11:46:49.025Z,11.00
2023-07-15T11:49:23.449Z,8.25
2023-07-15T11:54:18.402Z,10.05
2023-07-15T11:56:47.289Z,11.93
2023-07-15T11:59:35.162Z,11.65
2023-07-15T12:02:06.025Z,12.30
2023-07-15T12:04:33.261Z,12.77
2023-07-15T12:07:04.721Z,10.80
2023-07-15T12:09:33.301Z,11.55
2023-07-15T12:12:00.965Z,10.95
2023-07-15T12:14:28.725Z,9.35
2023-07-15T12:17:00.427Z,10.05
2023-07-15T12:19:29.700Z,11.13
2023-07-15T12:21:57.050Z,10.00
2023-07-15T12:24:24.133Z,9.98
2023-07-15T12:26:51.421Z,9.77
2023-07-15T12:29:18.384Z,10.32
2023-07-15T12:31:45.757Z,10.48
2023-07-15T12:34:12.925Z,10.27
2023-07-15T12:36:39.923Z,8.15
2023-07-15T12:39:07.408Z,8.65
2023-07-15T12:41:35.244Z,10.43
2023-07-15T12:44:02.291Z,6.90
2023-07-15T12:46:29.475Z,8.10
2023-07-15T12:48:57.332Z,9.10
2023-07-15T12:51:24.595Z,9.32
2023-07-15T12:53:51.752Z,10.25
2023-07-15T12:56:19.148Z,9.27
2023-07-15T12:58:46.274Z,11.00
2023-07-15T13:01:13.203Z,7.22
2023-07-15T13:03:40.318Z,8.48
2023-07-15T13:06:07.689Z,9.75
2023-07-15T13:08:34.573Z,8.38
2023-07-15T13:11:01.616Z,9.63
2023-07-15T13:13:28.741Z,7.25
2023-07-15T13:15:55.997Z,7.70
2023-07-15T13:18:23.357Z,8.52
2023-07-15T13:20:50.299Z,6.50
2023-07-15T13:23:17.359Z,7.97
2023-07-15T13:25:44.816Z,8.13
2023-07-15T13:28:12.602Z,6.93
2023-07-15T13:30:40.171Z,6.10
2023-07-15T13:33:07.460Z,6.68
2023-07-15T13:35:34.371Z,5.13
2023-07-15T13:38:01.640Z,10.98
2023-07-15T13:40:28.400Z,7.05
2023-07-15T13:42:55.041Z,6.03
2023-07-15T13:45:21.775Z,7.35
2023-07-15T13:47:52.818Z,7.07
2023-07-15T13:50:19.970Z,6.53
2023-07-15T13:52:46.926Z,4.85
2023-07-15T13:55:13.651Z,6.00
2023-07-15T13:57:40.313Z,8.23
2023-07-15T14:00:10.152Z,6.15
2023-07-15T14:02:41.588Z,7.05
2023-07-15T14:05:08.867Z,7.05
2023-07-15T14:07:38.762Z,7.22
2023-07-15T14:10:08.093Z,5.30
2023-07-15T14:12:34.868Z,4.82
2023-07-15T14:15:01.771Z,6.05
2023-07-15T14:17:28.631Z,6.10
2023-07-15T14:19:56.724Z,6.32
2023-07-15T14:22:30.746Z,7.05
2023-07-15T14:25:05.985Z,5.03
2023-07-15T14:27:32.694Z,5.28
2023-07-15T14:29:59.321Z,4.43
2023-07-15T14:32:26.099Z,5.78
2023-07-15T14:34:52.709Z,4.25
2023-07-15T14:37:19.411Z,7.00
2023-07-15T14:39:46.098Z,6.72
2023-07-15T14:42:12.913Z,5.15
2023-07-15T14:44:39.567Z,4.10
2023-07-15T14:47:06.316Z,7.57
2023-07-15T14:49:34.354Z,4.07
2023-07-15T14:52:01.092Z,4.70
2023-07-15T14:54:27.758Z,7.70
2023-07-15T14:56:54.448Z,4.45
2023-07-15T14:59:21.124Z,5.25
2023-07-15T15:01:47.875Z,6.93
2023-07-15T15:04:14.716Z,4.90
2023-07-15T15:06:41.356Z,5.30
2023-07-15T15:09:08.063Z,3.90
2023-07-15T15:11:34.844Z,3.42
2023-07-15T15:14:01.484Z,6.15
2023-07-15T15:16:28.114Z,4.45
2023-07-15T15:18:54.982Z,3.78
2023-07-15T15:21:21.650Z,5.72
2023-07-15T15:23:48.475Z,4.15
2023-07-15T15:26:16.863Z,4.00
2023-07-15T15:28:43.747Z,5.13
2023-07-15T15:31:11.098Z,3.67
2023-07-15T15:33:37.929Z,3.95
2023-07-15T15:36:04.854Z,3.80
2023-07-15T15:38:31.930Z,3.42
2023-07-15T15:40:58.729Z,3.10
2023-07-15T15:43:25.637Z,3.83
2023-07-15T15:45:52.738Z,3.13
2023-07-15T15:48:19.498Z,3.72
2023-07-15T15:50:46.155Z,4.68
2023-07-15T15:53:12.787Z,3.00
2023-07-15T15:55:39.535Z,6.45
2023-07-15T15:58:06.219Z,3.13
2023-07-15T16:00:32.873Z,4.20
2023-07-15T16:02:59.546Z,3.85
2023-07-15T16:05:26.465Z,3.22
2023-07-15T16:07:53.125Z,4.07
2023-07-15T16:10:19.787Z,4.10
2023-07-15T16:12:46.453Z,4.25
2023-07-15T16:15:13.109Z,3.83
2023-07-15T16:17:39.873Z,5.10
2023-07-15T16:20:08.185Z,3.88
2023-07-15T16:22:35.266Z,3.70
2023-07-15T16:25:05.486Z,3.25
2023-07-15T16:27:33.829Z,4.25
2023-07-15T16:30:00.940Z,3.00
2023-07-15T16:32:27.755Z,4.07
2023-07-15T16:34:54.656Z,3.13
2023-07-15T16:37:24.277Z,3.60
2023-07-15T16:39:51.643Z,2.92
2023-07-15T16:42:18.295Z,3.97
2023-07-15T16:44:48.852Z,3.47
2023-07-15T16:47:15.526Z,3.72
2023-07-15T16:49:44.008Z,3.30
2023-07-15T16:52:11.075Z,4.20
2023-07-15T16:54:37.768Z,5.82
2023-07-15T16:57:04.809Z,3.42
2023-07-15T16:59:31.487Z,4.63
2023-07-15T17:01:58.186Z,5.15
2023-07-15T17:04:25.292Z,3.75
2023-07-15T17:06:52.211Z,2.90
2023-07-15T17:09:19.068Z,3.35
2023-07-15T17:11:45.737Z,4.30
2023-07-15T17:14:12.408Z,4.50
2023-07-15T17:16:39.211Z,3.08
2023-07-15T17:19:06.037Z,3.58
2023-07-15T17:21:34.378Z,2.80
2023-07-15T17:24:01.177Z,2.80
2023-07-15T17:26:27.868Z,3.05
2023-07-15T17:28:54.643Z,3.00
2023-07-15T17:31:21.321Z,6.18
2023-07-15T17:33:48.067Z,4.43
2023-07-15T17:36:14.834Z,2.95
2023-07-15T17:38:41.650Z,3.28
2023-07-15T17:41:08.309Z,3.20
2023-07-15T17:43:34.956Z,3.60
2023-07-15T17:46:01.618Z,3.80
2023-07-15T17:48:28.379Z,4.22
2023-07-15T17:50:55.213Z,3.30
2023-07-15T17:53:21.959Z,4.82
2023-07-15T17:55:51.582Z,3.95
2023-07-15T17:58:18.425Z,3.63
2023-07-15T18:00:45.584Z,5.13
2023-07-15T18:03:12.428Z,3.20
2023-07-15T18:05:41.020Z,4.40
2023-07-15T18:08:08.454Z,2.78
2023-07-15T18:10:35.921Z,2.90
2023-07-15T18:13:03.273Z,4.05
2023-07-15T18:15:30.023Z,4.55
2023-07-15T18:17:56.920Z,3.13
2023-07-15T18:20:23.620Z,3.75
2023-07-15T18:22:50.488Z,2.78
2023-07-15T18:25:17.709Z,3.20
2023-07-15T18:27:45.951Z,4.00
2023-07-15T18:30:13.238Z,2.90
2023-07-15T18:32:42.130Z,3.28
2023-07-15T18:35:13.469Z,3.20
2023-07-15T18:37:40.433Z,3.85
2023-07-15T18:40:07.889Z,2.97
2023-07-15T18:42:34.735Z,3.15
2023-07-15T18:45:01.617Z,3.38
2023-07-15T18:47:28.511Z,3.67
2023-07-15T18:49:55.218Z,4.63
2023-07-15T18:52:21.895Z,3.10
2023-07-15T18:54:48.605Z,3.00
2023-07-15T18:57:22.524Z,3.45
2023-07-15T18:59:51.365Z,3.67
2023-07-15T19:02:18.144Z,4.95
2023-07-15T19:04:45.718Z,4.22
2023-07-15T19:07:12.372Z,2.58
2023-07-15T19:09:38.992Z,7.00
2023-07-15T19:12:06.128Z,4.03
2023-07-15T19:14:32.769Z,2.83
2023-07-15T19:16:59.454Z,3.13
2023-07-15T19:19:26.338Z,3.63
2023-07-15T19:21:53.124Z,3.63
2023-07-15T19:24:19.759Z,2.83
2023-07-15T19:26:46.373Z,3.30
2023-07-15T19:29:12.997Z,3.13
2023-07-15T19:31:39.686Z,3.88
2023-07-15T19:34:06.403Z,3.00
2023-07-15T19:36:33.014Z,3.10
2023-07-15T19:38:59.737Z,3.35
2023-07-15T19:41:27.034Z,3.67
2023-07-15T19:43:53.750Z,4.10
2023-07-15T19:46:20.880Z,4.50
2023-07-15T19:48:47.883Z,4.78
2023-07-15T19:51:14.675Z,5.22
2023-07-15T19:53:41.326Z,3.47
2023-07-15T19:56:07.987Z,2.92
2023-07-15T19:58:35.562Z,2.95
2023-07-15T20:01:02.918Z,2.85
2023-07-15T20:03:30.896Z,3.58
2023-07-15T20:05:58.529Z,3.53
2023-07-15T20:08:25.999Z,6.25
2023-07-15T20:10:53.501Z,3.50
2023-07-15T20:13:20.806Z,2.70
2023-07-15T20:15:47.686Z,3.28
2023-07-15T20:18:14.901Z,3.33
2023-07-15T20:20:42.056Z,3.10
2023-07-15T20:23:09.744Z,3.33
2023-07-15T20:25:37.989Z,3.72
2023-07-15T20:28:05.135Z,2.90
2023-07-15T20:30:32.304Z,4.18
2023-07-15T20:32:59.737Z,4.53
2023-07-15T20:35:27.933Z,5.10
2023-07-15T20:37:55.526Z,3.45
2023-07-15T20:40:22.575Z,3.50
2023-07-15T20:42:49.707Z,2.72
2023-07-15T20:45:17.437Z,3.40
2023-07-15T20:47:45.222Z,3.45
2023-07-15T20:50:13.374Z,3.42
2023-07-15T20:52:41.048Z,2.97
2023-07-15T20:55:09.562Z,3.00
2023-07-15T20:57:37.286Z,2.60
2023-07-15T21:00:05.338Z,2.92
2023-07-15T21:02:32.439Z,3.35
2023-07-15T21:04:59.851Z,3.85
2023-07-15T21:07:27.124Z,3.28
2023-07-15T21:09:53.979Z,3.35
2023-07-15T21:12:21.048Z,3.00
2023-07-15T21:14:47.848Z,2.78
2023-07-15T21:17:14.840Z,3.35
2023-07-15T21:19:41.669Z,3.00
2023-07-15T21:22:08.656Z,3.63
2023-07-15T21:24:35.568Z,2.97
2023-07-15T21:27:02.596Z,5.05
2023-07-15T21:29:29.628Z,3.20
2023-07-15T21:31:56.710Z,3.30
2023-07-15T21:34:23.750Z,3.05
2023-07-15T21:36:51.088Z,3.65
2023-07-15T21:39:18.024Z,3.90
2023-07-15T21:41:44.865Z,3.03
2023-07-15T21:44:11.667Z,2.97
2023-07-15T21:46:38.674Z,2.70
2023-07-15T21:49:05.790Z,3.75
2023-07-15T21:51:32.678Z,2.67
2023-07-15T21:53:59.677Z,3.55
2023-07-15T21:56:26.658Z,2.63
2023-07-15T21:58:54.219Z,4.57
2023-07-15T22:01:21.174Z,4.68
2023-07-15T22:03:48.330Z,2.83
2023-07-15T22:06:15.471Z,3.10
2023-07-15T22:08:42.563Z,2.45
2023-07-15T22:11:09.608Z,2.78
2023-07-15T22:13:36.729Z,2.70
2023-07-15T22:16:04.060Z,3.65
2023-07-15T22:21:05.310Z,3.38
2023-07-15T22:23:32.281Z,5.43
2023-07-15T22:25:59.166Z,3.20
2023-07-15T22:28:26.172Z,4.38
2023-07-15T22:30:53.016Z,4.32
2023-07-15T22:33:20.140Z,4.25
2023-07-15T22:35:46.954Z,4.05
2023-07-15T22:38:13.872Z,3.53
2023-07-15T22:40:41.323Z,4.40
2023-07-15T22:43:08.131Z,4.28
2023-07-15T22:45:42.032Z,4.13
2023-07-15T22:48:15.384Z,4.30
2023-07-15T22:50:42.266Z,5.85
2023-07-15T22:53:09.122Z,4.82
2023-07-15T22:55:36.340Z,5.68
2023-07-15T22:58:03.472Z,5.25
2023-07-15T23:00:30.293Z,5.50
2023-07-15T23:02:57.245Z,4.15
2023-07-15T23:05:24.419Z,5.40
2023-07-15T23:07:51.187Z,3.75
2023-07-15T23:10:18.094Z,4.53
2023-07-15T23:12:45.074Z,6.93
2023-07-15T23:15:12.070Z,6.43
2023-07-15T23:17:39.038Z,4.70
2023-07-15T23:20:09.639Z,4.05
2023-07-15T23:22:36.768Z,5.30
2023-07-15T23:25:06.985Z,4.57
2023-07-15T23:27:34.073Z,5.00
2023-07-15T23:30:00.956Z,4.10
2023-07-15T23:32:30.945Z,4.57
2023-07-15T23:34:57.855Z,4.35
2023-07-15T23:37:25.780Z,4.55
2023-07-15T23:39:56.739Z,3.10
2023-07-15T23:42:24.840Z,4.85
2023-07-15T23:44:52.515Z,3.97
2023-07-15T23:47:19.966Z,5.00
2023-07-15T23:49:50.081Z,3.92
2023-07-15T23:52:17.239Z,4.15
2023-07-15T23:54:44.319Z,4.65
2023-07-15T23:57:11.171Z,4.03
2023-07-15T23:59:38.291Z,5.40
